Time;durP1;ratioP1;P1;durP2;ratioP2;P2;SDS_P1;SDS_P2;PMS_P1;PMS_P2;Temp;Humidity;BMP_temperature;BMP_pressure;BME280_temperature;BME280_humidity;BME280_pressure;Samples;Min_cycle;Max_cycle;Signal;HPM_P1;HPM_P2
2023/04/22 00:02:18;;;;;;;13.30;5.30;;;;;;;9.62;64.91;100596.33;218217;1290;138597;-86
2023/04/22 00:07:18;;;;;;;16.40;5.00;;;;;;;9.56;64.99;100596.15;218593;1290;138572;-84
2023/04/22 00:12:19;;;;;;;11.80;5.30;;;;;;;9.49;65.04;100592.81;218130;1290;138608;-85
2023/04/22 00:17:19;;;;;;;11.00;4.90;;;;;;;9.42;65.52;100587.42;218379;1290;138772;-86
2023/04/22 00:22:19;;;;;;;13.60;4.80;;;;;;;9.35;65.65;100581.41;218103;1290;139158;-86
2023/04/22 00:27:20;;;;;;;9.90;4.70;;;;;;;9.29;65.47;100577.13;218584;1290;138132;-86
2023/04/22 00:32:21;;;;;;;13.30;5.10;;;;;;;9.24;65.65;100575.55;218180;1290;138141;-85
2023/04/22 00:37:23;;;;;;;14.80;4.80;;;;;;;9.18;66.22;100575.27;218842;1290;95630;-88
2023/04/22 00:42:24;;;;;;;11.70;5.00;;;;;;;9.11;66.14;100573.03;218029;1290;138907;-85
2023/04/22 00:47:25;;;;;;;9.60;4.10;;;;;;;9.07;66.10;100566.92;218537;1290;138748;-86
2023/04/22 00:52:26;;;;;;;11.90;4.50;;;;;;;9.02;66.32;100565.80;218203;1290;137926;-84
2023/04/22 00:57:29;;;;;;;10.50;4.40;;;;;;;8.98;66.61;100566.75;218668;1290;138565;-84
2023/04/22 01:02:30;;;;;;;10.40;4.70;;;;;;;8.93;67.80;100566.71;218013;1291;138801;-84
2023/04/22 01:07:30;;;;;;;10.30;5.30;;;;;;;8.89;68.17;100570.47;218777;1290;95650;-84
2023/04/22 01:12:30;;;;;;;9.20;4.80;;;;;;;8.83;68.05;100574.74;218213;1290;137800;-84
2023/04/22 01:17:32;;;;;;;10.90;4.30;;;;;;;8.76;67.98;100575.46;218687;1290;138483;-84
2023/04/22 01:22:36;;;;;;;10.90;4.70;;;;;;;8.63;69.03;100575.98;218184;1290;139162;-84
2023/04/22 01:27:37;;;;;;;14.30;4.90;;;;;;;8.48;69.51;100582.16;218620;1290;137761;-85
2023/04/22 01:32:39;;;;;;;9.30;4.60;;;;;;;8.33;70.37;100580.17;218108;1290;139055;-84
2023/04/22 01:37:39;;;;;;;10.80;4.90;;;;;;;8.15;70.91;100583.89;218671;1291;95954;-84
2023/04/22 01:42:40;;;;;;;10.60;5.00;;;;;;;7.98;71.45;100579.34;218139;1291;138249;-84
2023/04/22 01:47:40;;;;;;;9.60;4.70;;;;;;;7.84;71.95;100575.62;218651;1290;138592;-85
2023/04/22 01:52:41;;;;;;;13.50;6.30;;;;;;;7.73;72.93;100575.92;218081;1290;138661;-84
2023/04/22 01:57:41;;;;;;;10.60;5.30;;;;;;;7.63;73.48;100570.89;218582;1290;138841;-84
2023/04/22 02:02:41;;;;;;;13.50;5.40;;;;;;;7.52;73.76;100569.60;218065;1290;139121;-85
2023/04/22 02:07:42;;;;;;;11.30;5.90;;;;;;;7.37;74.03;100565.91;218636;1290;96159;-84
2023/04/22 02:12:42;;;;;;;13.50;5.10;;;;;;;7.27;74.82;100571.91;218111;1290;139318;-85
2023/04/22 02:17:43;;;;;;;12.10;5.80;;;;;;;7.15;75.27;100571.11;218664;1290;139386;-84
2023/04/22 02:22:43;;;;;;;13.40;6.40;;;;;;;7.04;75.50;100565.41;218099;1290;139284;-85
2023/04/22 02:27:43;;;;;;;12.40;6.40;;;;;;;6.92;76.19;100563.54;218569;1290;138768;-85
2023/04/22 02:32:44;;;;;;;11.50;5.80;;;;;;;6.85;76.70;100560.42;217976;1290;138929;-85
2023/04/22 02:37:44;;;;;;;12.10;6.10;;;;;;;6.75;77.09;100556.02;218693;1290;96083;-84
2023/04/22 02:42:44;;;;;;;10.50;5.70;;;;;;;6.65;77.40;100554.09;218114;1290;139903;-85
2023/04/22 02:47:45;;;;;;;13.00;6.30;;;;;;;6.53;77.78;100554.36;218546;1290;140070;-84
2023/04/22 02:52:45;;;;;;;14.20;6.60;;;;;;;6.43;78.23;100549.33;218005;1290;139753;-84
2023/04/22 02:57:45;;;;;;;12.70;6.20;;;;;;;6.38;78.97;100547.19;218416;1291;139072;-84
2023/04/22 03:02:46;;;;;;;12.60;6.00;;;;;;;6.29;79.06;100544.60;218115;1290;138981;-84
2023/04/22 03:07:46;;;;;;;11.80;5.40;;;;;;;6.21;79.63;100541.31;218679;1290;95958;-84
2023/04/22 03:12:47;;;;;;;12.60;5.60;;;;;;;6.14;79.96;100544.44;218047;1290;139993;-84
2023/04/22 03:17:48;;;;;;;12.60;5.60;;;;;;;6.04;80.24;100541.95;218585;1291;138665;-84
2023/04/22 03:22:48;;;;;;;11.60;6.40;;;;;;;5.98;80.62;100541.82;217884;1290;139697;-84
2023/04/22 03:27:49;;;;;;;12.80;6.10;;;;;;;5.93;80.95;100535.75;218615;1290;138886;-84
2023/04/22 03:32:49;;;;;;;13.20;6.00;;;;;;;5.90;81.13;100530.05;218048;1290;139089;-84
2023/04/22 03:37:50;;;;;;;13.70;6.20;;;;;;;5.87;81.48;100530.80;218729;1290;95690;-84
2023/04/22 03:42:50;;;;;;;15.00;6.60;;;;;;;5.82;82.08;100530.89;218104;1291;139260;-84
2023/04/22 03:47:50;;;;;;;14.20;6.60;;;;;;;5.79;82.35;100527.48;218555;1290;138659;-84
2023/04/22 03:52:51;;;;;;;15.40;7.70;;;;;;;5.76;82.43;100525.56;217929;1291;138707;-84
2023/04/22 03:57:51;;;;;;;12.70;6.10;;;;;;;5.73;82.75;100528.59;218529;1291;139183;-84
2023/04/22 04:02:51;;;;;;;12.50;6.50;;;;;;;5.69;82.87;100530.60;218035;1291;139678;-83
2023/04/22 04:07:52;;;;;;;17.90;7.10;;;;;;;5.68;82.95;100529.61;218612;1291;95677;-84
2023/04/22 04:12:52;;;;;;;15.60;6.80;;;;;;;5.68;82.75;100526.09;218124;1291;139491;-83
2023/04/22 04:17:54;;;;;;;15.90;7.90;;;;;;;5.67;82.85;100523.81;218489;1290;230430;-84
2023/04/22 04:22:55;;;;;;;17.60;7.70;;;;;;;5.69;82.63;100521.54;217975;1292;140970;-84
2023/04/22 04:27:55;;;;;;;17.80;7.60;;;;;;;5.72;82.39;100520.31;218461;1291;139840;-83
2023/04/22 04:32:56;;;;;;;15.60;7.40;;;;;;;5.78;82.37;100522.44;218038;1291;138879;-84
2023/04/22 04:37:58;;;;;;;19.70;8.90;;;;;;;5.85;82.54;100520.91;218658;1291;95973;-84
2023/04/22 04:43:01;;;;;;;14.40;7.30;;;;;;;5.95;82.24;100523.93;218167;1290;138865;-84
2023/04/22 04:48:02;;;;;;;15.60;7.80;;;;;;;6.01;82.32;100524.84;218653;1292;138562;-83
2023/04/22 04:53:02;;;;;;;15.10;8.40;;;;;;;6.13;82.23;100528.33;218105;1290;139785;-84
2023/04/22 04:58:03;;;;;;;20.30;8.10;;;;;;;6.28;82.01;100531.83;218547;1291;138701;-85
2023/04/22 05:03:03;;;;;;;18.80;8.20;;;;;;;6.39;81.78;100529.10;218044;1291;139999;-86
2023/04/22 05:08:04;;;;;;;15.70;7.80;;;;;;;6.54;81.64;100526.56;218802;1291;95807;-84
2023/04/22 05:13:04;;;;;;;17.10;7.70;;;;;;;6.63;81.63;100529.94;218036;1293;140130;-84
2023/04/22 05:18:05;;;;;;;16.50;8.00;;;;;;;6.69;81.53;100529.28;218518;1290;141516;-84
2023/04/22 05:23:06;;;;;;;18.50;7.60;;;;;;;6.79;81.43;100529.09;218135;1291;138820;-84
2023/04/22 05:28:06;;;;;;;17.80;8.10;;;;;;;6.93;81.48;100529.23;218464;1293;139754;-83
2023/04/22 05:33:07;;;;;;;15.60;8.00;;;;;;;7.12;81.35;100530.45;218155;1291;139581;-83
2023/04/22 05:38:08;;;;;;;16.30;7.70;;;;;;;7.33;81.71;100531.55;218487;1291;95650;-83
2023/04/22 05:43:08;;;;;;;16.70;8.10;;;;;;;7.75;81.50;100526.27;218005;1291;139044;-83
2023/04/22 05:48:08;;;;;;;16.20;9.40;;;;;;;8.24;81.60;100526.08;218529;1291;139126;-84
2023/04/22 05:53:08;;;;;;;17.10;8.40;;;;;;;8.75;80.50;100529.73;218139;1291;139602;-83
2023/04/22 05:58:09;;;;;;;19.90;8.30;;;;;;;9.25;78.00;100531.63;218589;1292;139540;-84
2023/04/22 06:03:09;;;;;;;18.70;8.80;;;;;;;9.63;77.22;100527.65;218025;1291;138916;-83
2023/04/22 06:08:10;;;;;;;18.10;9.00;;;;;;;10.01;75.92;100530.32;218810;1291;95947;-83
2023/04/22 06:13:10;;;;;;;19.20;8.60;;;;;;;10.35;75.62;100530.66;218135;1291;139647;-84
2023/04/22 06:18:11;;;;;;;19.40;8.50;;;;;;;10.65;74.59;100533.24;218504;1292;139764;-84
2023/04/22 06:23:11;;;;;;;18.90;8.50;;;;;;;10.92;74.04;100535.23;218022;1290;139223;-84
2023/04/22 06:28:11;;;;;;;17.60;8.50;;;;;;;11.19;74.37;100530.09;218603;1292;139201;-83
2023/04/22 06:33:12;;;;;;;19.00;8.90;;;;;;;11.40;72.49;100534.38;218151;1291;139189;-83
2023/04/22 06:38:12;;;;;;;16.70;8.30;;;;;;;11.63;72.86;100529.65;218758;1291;96079;-83
2023/04/22 06:43:12;;;;;;;18.10;9.10;;;;;;;11.82;71.38;100521.77;218052;1291;139539;-84
2023/04/22 06:48:13;;;;;;;16.50;8.40;;;;;;;11.87;71.20;100526.30;218663;1291;139995;-83
2023/04/22 06:53:13;;;;;;;18.30;9.10;;;;;;;12.06;70.65;100523.91;218132;1291;139439;-84
2023/04/22 06:58:13;;;;;;;18.00;9.60;;;;;;;12.23;68.66;100514.57;218705;1290;139324;-84
2023/04/22 07:03:14;;;;;;;18.90;9.00;;;;;;;12.40;68.79;100513.08;218137;1290;139729;-84
2023/04/22 07:08:15;;;;;;;17.70;9.10;;;;;;;12.60;68.18;100513.65;218718;1291;95675;-84
2023/04/22 07:13:15;;;;;;;17.30;9.00;;;;;;;12.81;67.55;100514.52;218068;1290;138876;-83
2023/04/22 07:18:15;;;;;;;19.30;9.30;;;;;;;13.04;67.09;100516.27;218606;1290;139076;-85
2023/04/22 07:23:16;;;;;;;22.10;9.50;;;;;;;13.19;65.94;100512.43;218140;1291;138916;-84
2023/04/22 07:28:16;;;;;;;18.90;9.60;;;;;;;13.26;65.28;100512.60;218706;1290;138538;-83
2023/04/22 07:33:17;;;;;;;18.30;8.90;;;;;;;13.31;65.51;100510.56;218073;1290;138768;-82
2023/04/22 07:38:17;;;;;;;16.50;8.90;;;;;;;13.44;65.61;100510.97;218772;1290;95712;-83
2023/04/22 07:43:17;;;;;;;17.50;9.50;;;;;;;13.60;65.15;100506.80;218141;1290;138926;-83
2023/04/22 07:48:18;;;;;;;16.70;9.40;;;;;;;13.71;65.20;100502.29;218545;1290;138338;-84
2023/04/22 07:53:19;;;;;;;17.80;9.10;;;;;;;13.88;64.15;100500.45;218140;1291;139381;-84
2023/04/22 07:58:19;;;;;;;17.50;8.00;;;;;;;14.14;63.72;100500.23;218575;1291;140010;-83
2023/04/22 08:03:20;;;;;;;17.30;8.70;;;;;;;14.35;62.78;100498.39;218109;1290;140025;-83
2023/04/22 08:08:20;;;;;;;19.80;9.30;;;;;;;14.56;62.65;100496.41;218680;1290;95950;-83
2023/04/22 08:13:21;;;;;;;15.50;8.30;;;;;;;14.80;62.41;100491.80;218116;1290;139511;-84
2023/04/22 08:18:21;;;;;;;16.90;7.70;;;;;;;15.12;62.11;100496.29;218665;1290;139257;-84
2023/04/22 08:23:22;;;;;;;14.70;7.40;;;;;;;15.64;61.41;100492.92;218057;1290;139703;-83
2023/04/22 08:28:22;;;;;;;12.60;7.20;;;;;;;16.39;60.43;100486.94;218685;1290;138464;-84
2023/04/22 08:33:23;;;;;;;15.30;7.70;;;;;;;17.30;58.54;100483.42;218144;1290;139429;-83
2023/04/22 08:38:23;;;;;;;16.70;8.70;;;;;;;18.24;57.64;100484.98;218674;1291;139162;-83
2023/04/22 08:43:26;;;;;;;11.60;6.50;;;;;;;19.16;56.30;100480.77;218333;1290;138565;-83
2023/04/22 08:48:27;;;;;;;11.90;6.80;;;;;;;20.17;54.30;100470.57;218612;1290;138416;-83
2023/04/22 08:53:27;;;;;;;12.10;6.20;;;;;;;21.12;51.67;100472.04;218076;1291;138896;-83
2023/04/22 08:58:28;;;;;;;13.50;5.80;;;;;;;22.01;48.82;100470.79;218577;1291;139286;-82
2023/04/22 09:03:29;;;;;;;9.40;4.90;;;;;;;22.99;47.25;100470.46;218097;1291;139139;-82
2023/04/22 09:08:33;;;;;;;8.20;4.60;;;;;;;23.82;45.59;100471.27;218533;1291;138522;-82
2023/04/22 09:13:33;;;;;;;10.50;5.70;;;;;;;24.44;42.23;100469.61;218185;1290;138549;-84
2023/04/22 09:18:46;;;;;;;9.20;4.90;;;;;;;25.17;42.32;100467.39;218600;1290;139896;-83
2023/04/22 09:23:51;;;;;;;9.60;4.40;;;;;;;25.70;38.77;100467.60;218097;1290;139083;-83
2023/04/22 09:28:59;;;;;;;;;;;;;;;25.94;37.76;100459.27;218645;1290;138288;-83
2023/04/22 09:34:00;;;;;;;11.30;5.10;;;;;;;26.24;37.16;100461.51;218401;1290;125372;-83
2023/04/22 09:39:03;;;;;;;11.40;5.00;;;;;;;26.62;35.91;100459.89;218044;1290;139440;-83
2023/04/22 09:44:08;;;;;;;10.70;5.80;;;;;;;27.05;34.97;100457.41;218732;1290;96139;-82
2023/04/22 09:49:10;;;;;;;13.00;6.50;;;;;;;27.13;34.02;100451.80;218067;1290;139873;-84
2023/04/22 09:54:10;;;;;;;10.50;5.40;;;;;;;27.42;34.08;100439.87;218678;1290;138404;-83
2023/04/22 09:59:11;;;;;;;12.00;6.20;;;;;;;27.86;32.96;100438.66;218078;1290;138886;-82
2023/04/22 10:04:13;;;;;;;10.50;5.50;;;;;;;28.16;32.74;100430.30;218534;1290;138505;-86
2023/04/22 10:09:17;;;;;;;13.10;7.00;;;;;;;28.44;31.07;100433.61;217834;1290;139051;-83
2023/04/22 10:14:20;;;;;;;10.20;6.10;;;;;;;28.44;30.86;100429.52;218793;1290;95638;-84
2023/04/22 10:19:22;;;;;;;11.00;6.40;;;;;;;28.52;31.05;100426.92;218053;1290;138194;-82
2023/04/22 10:24:26;;;;;;;10.40;6.00;;;;;;;28.87;31.04;100422.57;218679;1290;138746;-84
2023/04/22 10:29:35;;;;;;;11.80;6.90;;;;;;;28.98;30.41;100417.27;218070;1290;139239;-83
2023/04/22 10:34:37;;;;;;;9.40;5.30;;;;;;;29.06;29.12;100416.45;218581;1290;138644;-82
2023/04/22 10:39:41;;;;;;;11.90;5.80;;;;;;;28.92;28.95;100413.84;218117;1290;139798;-82
2023/04/22 10:44:53;;;;;;;10.50;6.40;;;;;;;28.53;28.01;100411.60;218601;1290;138628;-81
2023/04/22 10:50:09;;;;;;;13.40;6.50;;;;;;;28.03;27.39;100407.55;218237;1290;139080;-81
2023/04/22 10:55:10;;;;;;;9.70;6.30;;;;;;;28.02;28.07;100402.45;218619;1290;138096;-85
2023/04/22 11:00:39;;;;;;;11.00;6.10;;;;;;;28.03;28.03;100391.56;218043;1290;138926;-83
2023/04/22 11:05:40;;;;;;;11.60;5.90;;;;;;;27.91;27.55;100387.54;218638;1290;138617;-83
2023/04/22 11:10:43;;;;;;;9.70;5.90;;;;;;;27.79;29.54;100380.76;218177;1290;138517;-83
2023/04/22 11:15:46;;;;;;;10.10;5.20;;;;;;;28.15;28.61;100378.59;218587;1290;138651;-85
2023/04/22 11:20:48;;;;;;;10.20;6.30;;;;;;;28.36;29.32;100370.77;218221;1290;139424;-84
2023/04/22 11:25:57;;;;;;;12.90;6.50;;;;;;;28.24;27.69;100364.77;218661;1290;106886;-83
2023/04/22 11:31:05;;;;;;;13.50;6.40;;;;;;;28.15;28.60;100356.13;218107;1290;138480;-85
2023/04/22 11:36:12;;;;;;;8.90;5.60;;;;;;;27.93;28.50;100348.75;218483;1290;138317;-83
2023/04/22 11:41:12;;;;;;;11.40;6.30;;;;;;;27.68;28.46;100340.45;218067;1290;138885;-83
2023/04/22 11:46:13;;;;;;;13.00;5.70;;;;;;;27.84;29.20;100341.44;218666;1290;138445;-85
2023/04/22 11:51:13;;;;;;;11.20;6.70;;;;;;;28.04;28.78;100335.39;218191;1290;139069;-83
2023/04/22 11:56:14;;;;;;;9.50;5.90;;;;;;;28.05;28.52;100326.23;218701;1290;95740;-86
2023/04/22 12:01:14;;;;;;;14.80;7.90;;;;;;;27.53;27.68;100319.60;218034;1290;138608;-83
2023/04/22 12:06:15;;;;;;;11.40;6.50;;;;;;;26.85;27.57;100319.02;218754;1290;139999;-83
2023/04/22 12:11:15;;;;;;;11.10;6.30;;;;;;;26.62;28.77;100317.76;218172;1290;138824;-84
2023/04/22 12:16:18;;;;;;;10.50;5.00;;;;;;;26.71;28.88;100306.80;218561;1291;138490;-83
2023/04/22 12:21:22;;;;;;;11.50;5.80;;;;;;;27.01;30.25;100303.19;218099;1290;138602;-85
2023/04/22 12:26:24;;;;;;;10.80;5.30;;;;;;;26.98;29.59;100301.09;218539;1290;138496;-88
2023/04/22 12:31:25;;;;;;;9.30;5.80;;;;;;;27.05;30.44;100300.68;218120;1290;139738;-83
2023/04/22 12:36:26;;;;;;;10.20;6.00;;;;;;;26.88;29.92;100296.17;218611;1290;138369;-84
2023/04/22 12:41:26;;;;;;;12.10;6.10;;;;;;;26.58;28.99;100291.49;218223;1290;138654;-84
2023/04/22 12:46:27;;;;;;;10.90;5.90;;;;;;;26.34;29.36;100281.95;218691;1290;139348;-84
2023/04/22 12:51:27;;;;;;;11.80;6.10;;;;;;;26.19;30.40;100278.88;218180;1290;141423;-84
2023/04/22 12:56:27;;;;;;;9.90;6.20;;;;;;;26.24;31.14;100271.62;218754;1290;138430;-84
2023/04/22 13:01:29;;;;;;;10.70;6.10;;;;;;;26.32;29.60;100269.34;218303;1289;137915;-84
2023/04/22 13:06:31;;;;;;;9.60;6.30;;;;;;;25.98;34.58;100259.32;218599;1290;138486;-84
2023/04/22 13:11:31;;;;;;;9.60;5.70;;;;;;;26.34;32.67;100253.06;218095;1290;139111;-86
2023/04/22 13:16:31;;;;;;;10.00;6.50;;;;;;;26.20;30.24;100251.43;218715;1290;138528;-84
2023/04/22 13:21:32;;;;;;;12.00;6.50;;;;;;;25.64;30.87;100243.13;218208;1290;138558;-84
2023/04/22 13:26:32;;;;;;;10.90;6.70;;;;;;;25.57;30.59;100236.70;218727;1290;139606;-85
2023/04/22 13:31:32;;;;;;;12.90;7.00;;;;;;;25.46;31.53;100233.20;218289;1290;138835;-85
2023/04/22 13:36:33;;;;;;;12.50;6.70;;;;;;;25.47;32.70;100234.23;218767;1290;138266;-84
2023/04/22 13:41:34;;;;;;;10.90;6.10;;;;;;;25.44;32.70;100223.61;218043;1290;139051;-83
2023/04/22 13:46:35;;;;;;;12.30;6.50;;;;;;;25.42;31.96;100215.88;218670;1290;138941;-83
2023/04/22 13:51:36;;;;;;;11.30;7.20;;;;;;;25.01;30.66;100218.51;218154;1290;139519;-87
2023/04/22 13:56:36;;;;;;;11.40;7.20;;;;;;;24.44;30.54;100214.55;218402;1290;138394;-86
2023/04/22 14:01:37;;;;;;;12.70;5.60;;;;;;;24.15;31.03;100208.61;218309;1290;138977;-86
2023/04/22 14:06:38;;;;;;;12.30;5.80;;;;;;;24.01;32.26;100203.98;218697;1290;138173;-84
2023/04/22 14:11:38;;;;;;;10.60;5.60;;;;;;;24.31;34.34;100198.53;217862;1290;138975;-85
2023/04/22 14:16:38;;;;;;;10.70;6.50;;;;;;;24.21;31.17;100191.08;218693;1290;138624;-85
2023/04/22 14:21:39;;;;;;;11.60;6.40;;;;;;;23.77;31.25;100181.48;218154;1290;139087;-85
2023/04/22 14:26:39;;;;;;;11.10;6.50;;;;;;;23.49;31.41;100178.86;218751;1290;138923;-84
2023/04/22 14:31:40;;;;;;;10.10;5.70;;;;;;;23.34;31.80;100175.48;218285;1290;138234;-86
2023/04/22 14:36:40;;;;;;;10.20;6.00;;;;;;;23.30;32.07;100173.54;218469;1290;139100;-87
2023/04/22 14:41:41;;;;;;;11.40;5.90;;;;;;;23.28;32.53;100175.73;218170;1290;138446;-86
2023/04/22 14:46:41;;;;;;;14.50;6.60;;;;;;;23.24;33.24;100168.00;218693;1290;138489;-85
2023/04/22 14:51:41;;;;;;;9.20;5.20;;;;;;;23.22;31.95;100171.83;218198;1290;138689;-85
2023/04/22 14:56:42;;;;;;;13.50;6.50;;;;;;;22.97;31.76;100167.48;218722;1290;139136;-84
2023/04/22 15:01:42;;;;;;;10.90;6.30;;;;;;;22.85;32.05;100171.67;218280;1290;139442;-86
2023/04/22 15:06:43;;;;;;;10.20;5.70;;;;;;;22.67;32.20;100170.37;218719;1290;138291;-84
2023/04/22 15:11:43;;;;;;;9.10;5.40;;;;;;;22.56;32.72;100161.23;218209;1290;138450;-84
2023/04/22 15:16:43;;;;;;;10.30;5.50;;;;;;;22.38;33.87;100165.47;218677;1290;138348;-83
2023/04/22 15:21:45;;;;;;;11.60;5.80;;;;;;;22.28;33.25;100161.73;218234;1290;138337;-86
2023/04/22 15:26:46;;;;;;;10.70;6.20;;;;;;;22.04;31.75;100155.60;218709;1290;139307;-83
2023/04/22 15:31:47;;;;;;;12.90;6.50;;;;;;;21.87;32.22;100154.03;218229;1290;139264;-82
2023/04/22 15:36:48;;;;;;;10.80;6.00;;;;;;;21.75;33.69;100152.81;218592;1290;139133;-83
2023/04/22 15:41:48;;;;;;;10.90;5.60;;;;;;;21.61;33.78;100149.39;218173;1290;138793;-84
2023/04/22 15:46:51;;;;;;;11.40;5.50;;;;;;;21.43;33.99;100147.45;218644;1290;138735;-85
2023/04/22 15:51:52;;;;;;;13.60;6.30;;;;;;;21.35;33.56;100148.77;218206;1290;138465;-83
2023/04/22 15:56:52;;;;;;;15.70;7.70;;;;;;;21.22;33.65;100147.45;218643;1290;139405;-83
2023/04/22 16:01:53;;;;;;;11.20;6.70;;;;;;;21.09;33.50;100144.95;218208;1290;138937;-84
2023/04/22 16:06:56;;;;;;;10.90;5.20;;;;;;;20.93;33.23;100138.80;218460;1290;139250;-83
2023/04/22 16:11:56;;;;;;;9.90;5.20;;;;;;;20.83;34.91;100130.38;218143;1290;138545;-83
2023/04/22 16:16:56;;;;;;;10.90;5.40;;;;;;;20.73;34.28;100132.06;218582;1290;187202;-83
2023/04/22 16:21:57;;;;;;;9.40;5.80;;;;;;;20.57;35.11;100126.63;218122;1290;139292;-85
2023/04/22 16:26:57;;;;;;;9.20;5.20;;;;;;;20.48;35.38;100123.58;218529;1290;138287;-83
2023/04/22 16:31:58;;;;;;;9.30;5.80;;;;;;;20.38;36.30;100118.83;218284;1290;138704;-82
2023/04/22 16:36:58;;;;;;;9.90;5.30;;;;;;;20.30;36.18;100115.60;218747;1290;137922;-83
2023/04/22 16:41:59;;;;;;;8.90;4.90;;;;;;;20.24;36.76;100108.46;218194;1290;138589;-82
2023/04/22 16:46:59;;;;;;;12.00;5.40;;;;;;;20.16;35.92;100107.45;218687;1290;138272;-82
2023/04/22 16:51:59;;;;;;;9.40;5.40;;;;;;;20.02;35.67;100105.01;218184;1290;139856;-83
2023/04/22 16:57:01;;;;;;;9.90;5.60;;;;;;;19.92;34.99;100101.58;218728;1290;138398;-82
2023/04/22 17:02:02;;;;;;;10.50;5.20;;;;;;;19.83;35.71;100100.33;218243;1290;138397;-82
2023/04/22 17:07:03;;;;;;;10.00;5.40;;;;;;;19.72;36.75;100096.55;218608;1290;138360;-81
2023/04/22 17:12:03;;;;;;;10.70;5.60;;;;;;;19.56;36.80;100091.39;218175;1290;139170;-82
2023/04/22 17:17:03;;;;;;;9.60;5.50;;;;;;;19.41;37.33;100083.47;218641;1290;138473;-82
2023/04/22 17:22:04;;;;;;;14.40;6.40;;;;;;;19.30;38.52;100080.14;218057;1290;139701;-81
2023/04/22 17:27:04;;;;;;;9.90;5.20;;;;;;;19.20;38.26;100076.04;218686;1290;138593;-81
2023/04/22 17:32:05;;;;;;;10.90;5.70;;;;;;;19.04;38.37;100077.45;218262;1290;138415;-83
2023/04/22 17:37:05;;;;;;;10.30;4.80;;;;;;;18.88;38.99;100076.39;218662;1290;138173;-83
2023/04/22 17:42:06;;;;;;;8.80;5.10;;;;;;;18.76;41.61;100071.63;218123;1290;140515;-83
2023/04/22 17:47:06;;;;;;;11.60;4.80;;;;;;;18.65;42.23;100069.32;218613;1290;138190;-82
2023/04/22 17:52:07;;;;;;;8.20;4.80;;;;;;;18.49;42.20;100070.48;218084;1290;138629;-83
2023/04/22 17:57:08;;;;;;;9.30;5.20;;;;;;;18.31;44.73;100077.07;218520;1290;138280;-83
2023/04/22 18:02:10;;;;;;;13.30;7.00;;;;;;;18.16;46.52;100078.46;218229;1290;138448;-85
2023/04/22 18:07:11;;;;;;;11.80;7.40;;;;;;;17.97;47.01;100083.09;218558;1290;138770;-84
2023/04/22 18:12:11;;;;;;;17.50;8.90;;;;;;;17.69;46.95;100082.88;218058;1290;139754;-85
2023/04/22 18:17:12;;;;;;;20.00;10.00;;;;;;;17.38;48.43;100088.73;218652;1290;138398;-85
2023/04/22 18:22:12;;;;;;;28.80;11.90;;;;;;;17.09;49.26;100088.48;218015;1290;139003;-86
2023/04/22 18:27:13;;;;;;;35.60;15.80;;;;;;;16.81;50.08;100091.75;218725;1290;140004;-85
2023/04/22 18:32:15;;;;;;;35.30;13.90;;;;;;;16.63;50.71;100093.21;218242;1290;138336;-85
2023/04/22 18:37:16;;;;;;;27.70;13.60;;;;;;;16.47;51.63;100094.14;218577;1290;138187;-85
2023/04/22 18:42:17;;;;;;;28.10;14.80;;;;;;;16.28;52.39;100094.86;218126;1290;139370;-85
2023/04/22 18:47:17;;;;;;;25.70;14.00;;;;;;;16.03;53.15;100100.82;218562;1290;138702;-86
2023/04/22 18:52:18;;;;;;;31.90;16.10;;;;;;;15.77;54.05;100096.31;218182;1290;139420;-86
2023/04/22 18:57:18;;;;;;;30.90;16.50;;;;;;;15.57;54.98;100102.95;218644;1290;138689;-86
2023/04/22 19:02:20;;;;;;;22.60;12.70;;;;;;;15.37;55.65;100099.27;218260;1290;138888;-86
2023/04/22 19:07:20;;;;;;;27.20;14.80;;;;;;;15.14;55.95;100094.70;218567;1290;138355;-86
2023/04/22 19:12:20;;;;;;;26.70;16.10;;;;;;;14.94;56.94;100092.28;218112;1290;139044;-85
2023/04/22 19:17:21;;;;;;;24.50;13.20;;;;;;;14.78;57.81;100093.02;218628;1290;138686;-85
2023/04/22 19:22:21;;;;;;;23.80;12.40;;;;;;;14.58;58.12;100090.64;218057;1290;138864;-85
2023/04/22 19:27:21;;;;;;;22.80;10.70;;;;;;;14.38;58.66;100089.25;218736;1290;138630;-86
2023/04/22 19:32:22;;;;;;;20.60;11.60;;;;;;;14.21;59.49;100086.95;218267;1291;138837;-86
2023/04/22 19:37:23;;;;;;;18.40;10.90;;;;;;;14.01;59.97;100085.52;218721;1290;95727;-85
2023/04/22 19:42:23;;;;;;;23.10;12.50;;;;;;;13.83;60.49;100080.78;218118;1290;138470;-86
2023/04/22 19:47:25;;;;;;;22.40;11.90;;;;;;;13.66;61.15;100088.73;218720;1290;138701;-85
2023/04/22 19:52:26;;;;;;;22.60;14.40;;;;;;;13.45;61.75;100084.52;218035;1290;139505;-85
2023/04/22 19:57:27;;;;;;;28.80;14.90;;;;;;;13.28;62.18;100085.63;218663;1290;139333;-85
2023/04/22 20:02:28;;;;;;;25.30;15.10;;;;;;;13.13;63.18;100081.30;218217;1290;139985;-85
2023/04/22 20:07:34;;;;;;;21.50;14.40;;;;;;;12.99;63.48;100084.58;218801;1290;95623;-85
2023/04/22 20:12:35;;;;;;;;;;;;;;;12.84;64.31;100078.06;218053;1291;138243;-85
2023/04/22 20:17:38;;;;;;;26.00;16.10;;;;;;;12.69;65.02;100074.33;218501;1290;124929;-86
2023/04/22 20:22:43;;;;;;;28.70;16.50;;;;;;;12.57;65.18;100077.69;218011;1290;139019;-86
2023/04/22 20:27:43;;;;;;;27.60;16.30;;;;;;;12.46;65.45;100072.65;218505;1291;138695;-86
2023/04/22 20:32:43;;;;;;;31.90;17.10;;;;;;;12.37;66.11;100067.16;217973;1291;138804;-85
2023/04/22 20:37:45;;;;;;;25.60;15.60;;;;;;;12.31;66.01;100068.68;218757;1290;95745;-86
2023/04/22 20:42:46;;;;;;;22.80;13.70;;;;;;;12.23;66.20;100064.98;217919;1291;138733;-85
2023/04/22 20:47:47;;;;;;;25.70;15.50;;;;;;;12.15;66.14;100067.52;218616;1290;139243;-85
2023/04/22 20:52:47;;;;;;;27.00;15.30;;;;;;;12.07;66.57;100067.59;218192;1290;139063;-85
2023/04/22 20:57:48;;;;;;;25.40;15.00;;;;;;;12.00;66.82;100068.30;218620;1291;139258;-85
2023/04/22 21:02:49;;;;;;;26.30;17.10;;;;;;;11.89;66.72;100064.46;218107;1291;139339;-86
2023/04/22 21:07:54;;;;;;;31.10;16.70;;;;;;;11.80;67.10;100066.90;218710;1290;95639;-85
2023/04/22 21:12:54;;;;;;;24.20;15.10;;;;;;;11.72;67.52;100065.86;218002;1293;138751;-86
2023/04/22 21:17:56;;;;;;;22.90;14.90;;;;;;;11.64;67.97;100065.79;218525;1290;138728;-85
2023/04/22 21:22:56;;;;;;;26.50;16.20;;;;;;;11.57;68.15;100058.42;218021;1291;139629;-86
2023/04/22 21:27:57;;;;;;;26.70;16.30;;;;;;;11.50;68.10;100055.27;218661;1291;140343;-86
2023/04/22 21:32:57;;;;;;;27.10;16.50;;;;;;;11.41;68.33;100055.41;218132;1291;139330;-86
2023/04/22 21:37:58;;;;;;;30.30;17.10;;;;;;;11.34;68.60;100056.73;218742;1290;95685;-86
2023/04/22 21:43:03;;;;;;;27.60;17.20;;;;;;;11.26;68.96;100062.61;218066;1292;138930;-86
2023/04/22 21:48:03;;;;;;;26.90;15.80;;;;;;;11.18;68.97;100057.95;218589;1291;140613;-85
2023/04/22 21:53:04;;;;;;;27.70;17.50;;;;;;;11.11;68.97;100061.17;218070;1291;139822;-85
2023/04/22 21:58:04;;;;;;;23.40;15.10;;;;;;;11.03;68.84;100059.25;218645;1290;140207;-86
2023/04/22 22:03:04;;;;;;;25.60;15.60;;;;;;;10.97;68.83;100057.17;218088;1291;141703;-85
2023/04/22 22:08:05;;;;;;;27.00;16.40;;;;;;;10.92;68.63;100054.23;218730;1290;95710;-85
2023/04/22 22:13:06;;;;;;;28.20;18.70;;;;;;;10.85;68.91;100056.10;217983;1292;209362;-86
2023/04/22 22:18:07;;;;;;;31.50;17.40;;;;;;;10.80;68.69;100056.02;218606;1291;138971;-85
2023/04/22 22:23:07;;;;;;;29.00;18.90;;;;;;;10.74;68.16;100057.02;218136;1291;139360;-85
2023/04/22 22:28:07;;;;;;;30.50;19.20;;;;;;;10.69;68.64;100054.55;218668;1291;139279;-85
2023/04/22 22:33:08;;;;;;;31.40;18.20;;;;;;;10.64;68.74;100049.34;217985;1291;140369;-86
2023/04/22 22:38:08;;;;;;;33.00;19.80;;;;;;;10.59;69.01;100047.18;218721;1291;95635;-85